sensor_id;sensor_type;location;lat;lon;timestamp;pressure;altitude;pressure_sealevel;temperature;humidity
15405;BME280;7801;48.124;11.590;2023-01-29T00:01:09;96271.12;;;2.41;88.16
15405;BME280;7801;48.124;11.590;2023-01-29T00:03:35;96275.28;;;2.49;87.75
15405;BME280;7801;48.124;11.590;2023-01-29T00:06:04;96270.91;;;2.43;87.83
15405;BME280;7801;48.124;11.590;2023-01-29T00:08:35;96276.53;;;2.28;88.39
15405;BME280;7801;48.124;11.590;2023-01-29T00:11:05;96270.91;;;2.06;89.32
15405;BME280;7801;48.124;11.590;2023-01-29T00:13:30;96272.13;;;2.04;89.83
15405;BME280;7801;48.124;11.590;2023-01-29T00:15:57;96271.91;;;2.05;90.25
15405;BME280;7801;48.124;11.590;2023-01-29T00:18:23;96257.72;;;4.79;100.00
15405;BME280;7801;48.124;11.590;2023-01-29T00:20:49;96261.56;;;4.48;91.31
15405;BME280;7801;48.124;11.590;2023-01-29T00:23:14;96267.88;;;3.66;83.97
15405;BME280;7801;48.124;11.590;2023-01-29T00:25:40;96280.09;;;3.00;84.60
15405;BME280;7801;48.124;11.590;2023-01-29T00:28:06;96274.97;;;2.57;86.86
15405;BME280;7801;48.124;11.590;2023-01-29T00:30:31;96278.69;;;2.50;87.27
15405;BME280;7801;48.124;11.590;2023-01-29T00:32:57;96282.09;;;2.50;87.32
15405;BME280;7801;48.124;11.590;2023-01-29T00:35:22;96290.09;;;2.19;88.30
15405;BME280;7801;48.124;11.590;2023-01-29T00:37:47;96287.66;;;1.74;89.98
15405;BME280;7801;48.124;11.590;2023-01-29T00:40:13;96291.31;;;1.73;90.64
15405;BME280;7801;48.124;11.590;2023-01-29T00:42:38;96291.03;;;1.81;90.56
15405;BME280;7801;48.124;11.590;2023-01-29T00:45:22;96292.00;;;1.87;90.35
15405;BME280;7801;48.124;11.590;2023-01-29T00:47:47;96298.25;;;1.61;91.41
15405;BME280;7801;48.124;11.590;2023-01-29T00:50:13;96293.53;;;1.69;91.22
15405;BME280;7801;48.124;11.590;2023-01-29T00:52:38;96291.88;;;1.75;91.39
15405;BME280;7801;48.124;11.590;2023-01-29T00:55:08;96287.56;;;1.87;90.78
15405;BME280;7801;48.124;11.590;2023-01-29T00:57:35;96291.75;;;1.88;89.81
15405;BME280;7801;48.124;11.590;2023-01-29T01:00:01;96294.63;;;1.62;89.45
15405;BME280;7801;48.124;11.590;2023-01-29T01:02:27;96295.63;;;1.61;89.70
15405;BME280;7801;48.124;11.590;2023-01-29T01:05:13;96298.50;;;1.53;89.56
15405;BME280;7801;48.124;11.590;2023-01-29T01:07:43;96289.37;;;1.62;90.12
15405;BME280;7801;48.124;11.590;2023-01-29T01:10:15;96293.50;;;1.76;89.50
15405;BME280;7801;48.124;11.590;2023-01-29T01:13:06;96292.91;;;1.74;89.37
15405;BME280;7801;48.124;11.590;2023-01-29T01:15:37;96281.34;;;1.63;89.72
15405;BME280;7801;48.124;11.590;2023-01-29T01:18:03;96287.50;;;1.69;89.89
15405;BME280;7801;48.124;11.590;2023-01-29T01:20:31;96288.25;;;1.76;89.44
15405;BME280;7801;48.124;11.590;2023-01-29T01:22:57;96297.50;;;1.79;89.60
15405;BME280;7801;48.124;11.590;2023-01-29T01:25:24;96290.63;;;1.84;88.95
15405;BME280;7801;48.124;11.590;2023-01-29T01:27:53;96299.53;;;1.77;89.31
15405;BME280;7801;48.124;11.590;2023-01-29T01:30:19;96302.66;;;1.60;89.80
15405;BME280;7801;48.124;11.590;2023-01-29T01:32:45;96300.12;;;1.47;89.37
15405;BME280;7801;48.124;11.590;2023-01-29T01:35:11;96304.66;;;1.33;90.18
15405;BME280;7801;48.124;11.590;2023-01-29T01:37:38;96297.50;;;1.22;91.34
15405;BME280;7801;48.124;11.590;2023-01-29T01:40:06;96300.59;;;1.44;91.09
15405;BME280;7801;48.124;11.590;2023-01-29T01:42:38;96302.03;;;1.65;90.36
15405;BME280;7801;48.124;11.590;2023-01-29T01:45:05;96300.91;;;1.79;89.53
15405;BME280;7801;48.124;11.590;2023-01-29T01:50:02;96299.44;;;1.65;90.02
15405;BME280;7801;48.124;11.590;2023-01-29T01:52:31;96301.81;;;1.66;89.82
15405;BME280;7801;48.124;11.590;2023-01-29T01:54:58;96298.66;;;1.58;89.68
15405;BME280;7801;48.124;11.590;2023-01-29T01:57:24;96294.28;;;1.77;89.34
15405;BME280;7801;48.124;11.590;2023-01-29T01:59:56;96297.13;;;2.00;88.32
15405;BME280;7801;48.124;11.590;2023-01-29T02:02:23;96294.50;;;2.00;87.52
15405;BME280;7801;48.124;11.590;2023-01-29T02:05:09;96294.53;;;1.93;87.35
15405;BME280;7801;48.124;11.590;2023-01-29T02:07:53;96294.88;;;2.03;87.39
15405;BME280;7801;48.124;11.590;2023-01-29T02:10:42;96292.25;;;2.03;86.91
15405;BME280;7801;48.124;11.590;2023-01-29T02:13:08;96303.31;;;2.05;87.04
15405;BME280;7801;48.124;11.590;2023-01-29T02:15:33;96306.19;;;1.97;87.13
15405;BME280;7801;48.124;11.590;2023-01-29T02:17:59;96307.91;;;1.85;87.19
15405;BME280;7801;48.124;11.590;2023-01-29T02:23:04;96312.50;;;1.65;88.26
15405;BME280;7801;48.124;11.590;2023-01-29T02:31:10;96308.84;;;1.91;86.92
15405;BME280;7801;48.124;11.590;2023-01-29T02:34:16;96304.97;;;2.00;86.22
15405;BME280;7801;48.124;11.590;2023-01-29T02:37:04;96304.97;;;2.00;85.99
15405;BME280;7801;48.124;11.590;2023-01-29T02:39:38;96297.28;;;1.80;86.57
15405;BME280;7801;48.124;11.590;2023-01-29T02:45:15;96293.09;;;1.97;86.50
15405;BME280;7801;48.124;11.590;2023-01-29T02:47:56;96290.31;;;1.67;86.84
15405;BME280;7801;48.124;11.590;2023-01-29T02:53:14;96284.59;;;1.84;85.44
15405;BME280;7801;48.124;11.590;2023-01-29T02:55:51;96282.59;;;1.79;85.30
15405;BME280;7801;48.124;11.590;2023-01-29T03:00:47;96274.47;;;1.87;85.64
15405;BME280;7801;48.124;11.590;2023-01-29T03:03:17;96281.81;;;1.79;85.56
15405;BME280;7801;48.124;11.590;2023-01-29T03:08:31;96283.13;;;1.88;85.07
15405;BME280;7801;48.124;11.590;2023-01-29T03:11:08;96276.69;;;2.08;84.20
15405;BME280;7801;48.124;11.590;2023-01-29T03:16:32;96279.34;;;2.27;82.80
15405;BME280;7801;48.124;11.590;2023-01-29T03:19:39;96278.19;;;2.23;82.10
15405;BME280;7801;48.124;11.590;2023-01-29T03:21:59;96273.16;;;2.21;82.26
15405;BME280;7801;48.124;11.590;2023-01-29T03:27:13;96279.25;;;2.15;82.14
15405;BME280;7801;48.124;11.590;2023-01-29T03:30:00;96286.34;;;2.08;81.61
15405;BME280;7801;48.124;11.590;2023-01-29T03:32:46;96287.00;;;2.28;81.27
15405;BME280;7801;48.124;11.590;2023-01-29T03:35:17;96285.12;;;2.11;81.55
15405;BME280;7801;48.124;11.590;2023-01-29T03:37:47;96287.16;;;2.08;82.18
15405;BME280;7801;48.124;11.590;2023-01-29T03:40:14;96295.69;;;2.04;82.96
15405;BME280;7801;48.124;11.590;2023-01-29T03:43:08;96288.47;;;1.99;83.17
15405;BME280;7801;48.124;11.590;2023-01-29T03:48:40;96290.94;;;2.13;83.14
15405;BME280;7801;48.124;11.590;2023-01-29T03:59:17;96273.16;;;2.21;81.71
15405;BME280;7801;48.124;11.590;2023-01-29T04:01:48;96270.75;;;2.38;81.26
15405;BME280;7801;48.124;11.590;2023-01-29T04:04:23;96258.97;;;2.29;81.80
15405;BME280;7801;48.124;11.590;2023-01-29T04:06:55;96256.81;;;2.26;81.67
15405;BME280;7801;48.124;11.590;2023-01-29T04:10:09;96253.28;;;2.14;82.66
15405;BME280;7801;48.124;11.590;2023-01-29T04:12:11;96248.06;;;2.32;82.54
15405;BME280;7801;48.124;11.590;2023-01-29T04:14:41;96253.44;;;2.00;83.49
15405;BME280;7801;48.124;11.590;2023-01-29T04:17:20;96251.47;;;1.96;84.21
15405;BME280;7801;48.124;11.590;2023-01-29T04:19:49;96254.41;;;2.24;83.23
15405;BME280;7801;48.124;11.590;2023-01-29T04:22:21;96255.22;;;2.25;82.93
15405;BME280;7801;48.124;11.590;2023-01-29T04:24:50;96256.34;;;2.29;82.60
15405;BME280;7801;48.124;11.590;2023-01-29T04:32:41;96256.44;;;2.22;83.08
15405;BME280;7801;48.124;11.590;2023-01-29T04:35:30;96250.84;;;2.37;83.14
15405;BME280;7801;48.124;11.590;2023-01-29T04:47:05;96258.25;;;2.03;83.95
15405;BME280;7801;48.124;11.590;2023-01-29T04:55:38;96266.97;;;2.16;81.76
15405;BME280;7801;48.124;11.590;2023-01-29T04:58:10;96253.22;;;2.02;82.23
15405;BME280;7801;48.124;11.590;2023-01-29T05:00:43;96256.22;;;2.05;82.46
15405;BME280;7801;48.124;11.590;2023-01-29T05:03:12;96253.91;;;1.91;81.47
15405;BME280;7801;48.124;11.590;2023-01-29T05:05:42;96255.06;;;2.20;79.99
15405;BME280;7801;48.124;11.590;2023-01-29T05:08:11;96244.31;;;2.28;79.44
15405;BME280;7801;48.124;11.590;2023-01-29T05:10:41;96248.50;;;2.29;79.05
15405;BME280;7801;48.124;11.590;2023-01-29T05:13:21;96259.94;;;2.34;80.25
15405;BME280;7801;48.124;11.590;2023-01-29T05:16:03;96260.34;;;2.13;81.88
15405;BME280;7801;48.124;11.590;2023-01-29T05:18:33;96263.94;;;2.37;81.65
15405;BME280;7801;48.124;11.590;2023-01-29T05:21:02;96261.91;;;2.39;81.31
15405;BME280;7801;48.124;11.590;2023-01-29T05:23:29;96265.97;;;2.35;81.24
15405;BME280;7801;48.124;11.590;2023-01-29T05:25:55;96273.41;;;1.70;81.64
15405;BME280;7801;48.124;11.590;2023-01-29T05:28:22;96278.06;;;1.93;81.72
15405;BME280;7801;48.124;11.590;2023-01-29T05:30:51;96283.28;;;1.93;80.39
15405;BME280;7801;48.124;11.590;2023-01-29T05:33:28;96290.69;;;2.21;78.82
15405;BME280;7801;48.124;11.590;2023-01-29T05:35:56;96290.63;;;2.27;79.27
15405;BME280;7801;48.124;11.590;2023-01-29T05:38:24;96287.06;;;2.22;80.24
15405;BME280;7801;48.124;11.590;2023-01-29T05:40:50;96293.31;;;2.39;80.29
15405;BME280;7801;48.124;11.590;2023-01-29T05:43:18;96295.97;;;2.14;81.86
15405;BME280;7801;48.124;11.590;2023-01-29T05:45:54;96294.59;;;2.30;81.85
15405;BME280;7801;48.124;11.590;2023-01-29T05:48:22;96304.47;;;2.10;83.18
15405;BME280;7801;48.124;11.590;2023-01-29T05:50:48;96303.13;;;2.25;82.09
15405;BME280;7801;48.124;11.590;2023-01-29T05:53:14;96306.34;;;2.02;83.37
15405;BME280;7801;48.124;11.590;2023-01-29T05:55:43;96305.84;;;2.12;83.35
15405;BME280;7801;48.124;11.590;2023-01-29T05:58:10;96310.16;;;2.06;83.17
15405;BME280;7801;48.124;11.590;2023-01-29T06:00:37;96300.12;;;2.22;82.51
15405;BME280;7801;48.124;11.590;2023-01-29T06:03:06;96292.94;;;2.35;81.83
15405;BME280;7801;48.124;11.590;2023-01-29T06:05:36;96295.91;;;2.21;81.82
15405;BME280;7801;48.124;11.590;2023-01-29T06:08:02;96290.69;;;2.21;81.67
15405;BME280;7801;48.124;11.590;2023-01-29T06:10:27;96290.66;;;2.02;82.84
15405;BME280;7801;48.124;11.590;2023-01-29T06:12:54;96299.44;;;2.08;82.97
15405;BME280;7801;48.124;11.590;2023-01-29T06:15:20;96294.28;;;2.01;82.10
15405;BME280;7801;48.124;11.590;2023-01-29T06:17:46;96290.66;;;1.78;81.82
15405;BME280;7801;48.124;11.590;2023-01-29T06:20:12;96292.56;;;1.89;81.77
15405;BME280;7801;48.124;11.590;2023-01-29T06:22:38;96286.91;;;1.67;82.34
15405;BME280;7801;48.124;11.590;2023-01-29T06:25:06;96295.47;;;1.56;82.31
15405;BME280;7801;48.124;11.590;2023-01-29T06:27:31;96287.47;;;1.76;82.42
15405;BME280;7801;48.124;11.590;2023-01-29T06:29:58;96291.13;;;1.68;82.70
15405;BME280;7801;48.124;11.590;2023-01-29T06:32:29;96293.38;;;1.89;80.95
15405;BME280;7801;48.124;11.590;2023-01-29T06:34:56;96291.34;;;1.91;80.94
15405;BME280;7801;48.124;11.590;2023-01-29T06:37:21;96295.09;;;1.77;81.55
15405;BME280;7801;48.124;11.590;2023-01-29T06:39:46;96302.03;;;1.90;81.32
15405;BME280;7801;48.124;11.590;2023-01-29T06:42:12;96300.97;;;1.97;80.59
15405;BME280;7801;48.124;11.590;2023-01-29T06:44:39;96306.81;;;2.18;80.28
15405;BME280;7801;48.124;11.590;2023-01-29T06:47:05;96308.28;;;2.32;78.54
15405;BME280;7801;48.124;11.590;2023-01-29T06:49:32;96302.75;;;2.22;78.83
15405;BME280;7801;48.124;11.590;2023-01-29T06:51:59;96298.69;;;2.26;78.39
15405;BME280;7801;48.124;11.590;2023-01-29T06:54:26;96300.38;;;2.38;77.87
15405;BME280;7801;48.124;11.590;2023-01-29T06:56:52;96303.72;;;2.46;77.70
15405;BME280;7801;48.124;11.590;2023-01-29T06:59:19;96303.97;;;2.19;78.35
15405;BME280;7801;48.124;11.590;2023-01-29T07:01:44;96310.44;;;2.17;78.64
15405;BME280;7801;48.124;11.590;2023-01-29T07:04:10;96307.78;;;1.98;78.40
15405;BME280;7801;48.124;11.590;2023-01-29T07:06:36;96301.53;;;1.99;78.85
15405;BME280;7801;48.124;11.590;2023-01-29T07:09:03;96303.44;;;2.11;78.46
15405;BME280;7801;48.124;11.590;2023-01-29T07:11:28;96301.00;;;2.16;78.88
15405;BME280;7801;48.124;11.590;2023-01-29T07:13:54;96304.84;;;2.31;77.91
15405;BME280;7801;48.124;11.590;2023-01-29T07:16:21;96295.94;;;2.39;77.46
15405;BME280;7801;48.124;11.590;2023-01-29T07:18:48;96302.31;;;2.25;77.60
15405;BME280;7801;48.124;11.590;2023-01-29T07:21:15;96304.91;;;2.06;77.72
15405;BME280;7801;48.124;11.590;2023-01-29T07:23:40;96309.28;;;2.13;77.39
15405;BME280;7801;48.124;11.590;2023-01-29T07:26:09;96292.28;;;2.22;76.64
15405;BME280;7801;48.124;11.590;2023-01-29T07:28:39;96282.47;;;2.35;76.51
15405;BME280;7801;48.124;11.590;2023-01-29T07:31:06;96283.28;;;2.36;76.53
15405;BME280;7801;48.124;11.590;2023-01-29T07:33:33;96286.19;;;2.28;77.06
15405;BME280;7801;48.124;11.590;2023-01-29T07:36:06;96291.13;;;1.93;77.98
15405;BME280;7801;48.124;11.590;2023-01-29T07:38:31;96283.50;;;1.66;78.10
15405;BME280;7801;48.124;11.590;2023-01-29T07:40:58;96275.06;;;1.89;78.18
15405;BME280;7801;48.124;11.590;2023-01-29T07:43:23;96280.59;;;1.81;78.34
15405;BME280;7801;48.124;11.590;2023-01-29T07:45:54;96278.50;;;2.08;77.77
15405;BME280;7801;48.124;11.590;2023-01-29T07:48:19;96273.44;;;2.13;77.72
15405;BME280;7801;48.124;11.590;2023-01-29T07:50:53;96271.19;;;2.35;76.90
15405;BME280;7801;48.124;11.590;2023-01-29T07:53:21;96266.75;;;2.17;76.67
15405;BME280;7801;48.124;11.590;2023-01-29T07:55:46;96263.94;;;2.37;76.65
15405;BME280;7801;48.124;11.590;2023-01-29T07:58:11;96258.41;;;2.45;76.27
15405;BME280;7801;48.124;11.590;2023-01-29T08:00:37;96277.59;;;2.39;76.18
15405;BME280;7801;48.124;11.590;2023-01-29T08:03:08;96276.00;;;2.38;75.97
15405;BME280;7801;48.124;11.590;2023-01-29T08:05:45;96265.47;;;2.26;75.84
15405;BME280;7801;48.124;11.590;2023-01-29T08:08:11;96270.03;;;2.31;75.61
15405;BME280;7801;48.124;11.590;2023-01-29T08:10:39;96268.59;;;2.35;74.87
15405;BME280;7801;48.124;11.590;2023-01-29T08:13:06;96270.53;;;2.21;75.71
15405;BME280;7801;48.124;11.590;2023-01-29T08:15:33;96267.47;;;2.06;75.37
15405;BME280;7801;48.124;11.590;2023-01-29T08:18:00;96268.19;;;1.70;75.80
15405;BME280;7801;48.124;11.590;2023-01-29T08:20:28;96275.78;;;1.78;75.90
15405;BME280;7801;48.124;11.590;2023-01-29T08:23:00;96274.41;;;1.94;75.22
15405;BME280;7801;48.124;11.590;2023-01-29T08:25:28;96265.19;;;1.91;75.46
15405;BME280;7801;48.124;11.590;2023-01-29T08:27:56;96266.09;;;2.03;75.17
15405;BME280;7801;48.124;11.590;2023-01-29T08:30:33;96274.13;;;1.84;75.27
15405;BME280;7801;48.124;11.590;2023-01-29T08:32:59;96280.41;;;2.01;74.92
15405;BME280;7801;48.124;11.590;2023-01-29T08:35:25;96280.41;;;2.01;74.54
15405;BME280;7801;48.124;11.590;2023-01-29T08:37:59;96288.09;;;1.96;74.48
15405;BME280;7801;48.124;11.590;2023-01-29T08:40:28;96282.56;;;1.86;75.51
15405;BME280;7801;48.124;11.590;2023-01-29T08:43:03;96291.41;;;1.85;75.14
15405;BME280;7801;48.124;11.590;2023-01-29T08:45:52;96299.63;;;1.88;75.28
15405;BME280;7801;48.124;11.590;2023-01-29T08:48:19;96300.75;;;1.74;74.60
15405;BME280;7801;48.124;11.590;2023-01-29T08:50:47;96306.91;;;1.86;74.13
15405;BME280;7801;48.124;11.590;2023-01-29T08:53:18;96313.94;;;1.86;74.74
15405;BME280;7801;48.124;11.590;2023-01-29T08:56:04;96311.75;;;2.08;74.47
15405;BME280;7801;48.124;11.590;2023-01-29T08:58:30;96316.69;;;2.16;73.97
15405;BME280;7801;48.124;11.590;2023-01-29T09:01:07;96311.09;;;2.30;73.21
15405;BME280;7801;48.124;11.590;2023-01-29T09:03:33;96315.69;;;2.17;74.00
15405;BME280;7801;48.124;11.590;2023-01-29T09:05:58;96318.88;;;2.19;72.85
15405;BME280;7801;48.124;11.590;2023-01-29T09:08:23;96327.00;;;2.11;73.78
15405;BME280;7801;48.124;11.590;2023-01-29T09:10:49;96320.66;;;2.00;73.68
15405;BME280;7801;48.124;11.590;2023-01-29T09:13:15;96326.78;;;2.12;73.88
15405;BME280;7801;48.124;11.590;2023-01-29T09:15:41;96325.72;;;2.20;73.65
15405;BME280;7801;48.124;11.590;2023-01-29T09:18:07;96309.16;;;5.89;100.00
15405;BME280;7801;48.124;11.590;2023-01-29T09:20:34;96315.25;;;6.62;88.42
15405;BME280;7801;48.124;11.590;2023-01-29T09:23:10;96321.25;;;7.44;72.26
15405;BME280;7801;48.124;11.590;2023-01-29T09:25:36;96325.25;;;8.38;67.01
15405;BME280;7801;48.124;11.590;2023-01-29T09:28:03;96326.66;;;8.92;60.86
15405;BME280;7801;48.124;11.590;2023-01-29T09:30:35;96333.69;;;9.39;56.80
15405;BME280;7801;48.124;11.590;2023-01-29T09:33:06;96330.38;;;9.99;54.08
15405;BME280;7801;48.124;11.590;2023-01-29T09:35:34;96340.09;;;9.58;52.76
15405;BME280;7801;48.124;11.590;2023-01-29T09:38:00;96336.50;;;10.10;52.13
15405;BME280;7801;48.124;11.590;2023-01-29T09:43:12;96337.56;;;10.14;50.18
15405;BME280;7801;48.124;11.590;2023-01-29T09:45:57;96342.87;;;10.29;50.15
15405;BME280;7801;48.124;11.590;2023-01-29T09:48:27;96347.91;;;10.21;48.87
15405;BME280;7801;48.124;11.590;2023-01-29T09:50:57;96356.09;;;10.04;49.24
15405;BME280;7801;48.124;11.590;2023-01-29T09:53:56;96361.38;;;9.99;49.54
15405;BME280;7801;48.124;11.590;2023-01-29T09:56:25;96362.97;;;10.00;49.18
15405;BME280;7801;48.124;11.590;2023-01-29T09:58:58;96348.66;;;9.91;49.15
15405;BME280;7801;48.124;11.590;2023-01-29T10:01:32;96349.75;;;10.10;48.67
15405;BME280;7801;48.124;11.590;2023-01-29T10:21:15;96342.34;;;11.92;44.80
15405;BME280;7801;48.124;11.590;2023-01-29T10:26:27;96327.44;;;12.30;43.97
15405;BME280;7801;48.124;11.590;2023-01-29T10:28:56;96324.50;;;12.31;44.34
15405;BME280;7801;48.124;11.590;2023-01-29T10:31:31;96324.78;;;12.30;43.30
15405;BME280;7801;48.124;11.590;2023-01-29T10:34:29;96327.66;;;12.38;43.86
15405;BME280;7801;48.124;11.590;2023-01-29T10:36:58;96326.09;;;12.32;43.87
15405;BME280;7801;48.124;11.590;2023-01-29T10:39:29;96314.22;;;12.20;43.45
15405;BME280;7801;48.124;11.590;2023-01-29T10:48:06;96323.31;;;12.14;49.19
15405;BME280;7801;48.124;11.590;2023-01-29T10:50:57;96327.81;;;12.18;51.15
15405;BME280;7801;48.124;11.590;2023-01-29T10:59:51;96316.91;;;12.20;54.98
15405;BME280;7801;48.124;11.590;2023-01-29T11:02:20;96325.13;;;9.07;48.61
15405;BME280;7801;48.124;11.590;2023-01-29T11:04:47;96323.62;;;8.00;51.13
15405;BME280;7801;48.124;11.590;2023-01-29T11:07:15;96322.81;;;6.36;55.42
15405;BME280;7801;48.124;11.590;2023-01-29T11:10:10;96322.53;;;5.71;58.58
15405;BME280;7801;48.124;11.590;2023-01-29T11:12:39;96331.00;;;5.16;60.78
15405;BME280;7801;48.124;11.590;2023-01-29T11:15:28;96320.59;;;4.58;62.93
15405;BME280;7801;48.124;11.590;2023-01-29T11:18:12;96321.19;;;4.01;65.58
15405;BME280;7801;48.124;11.590;2023-01-29T11:20:45;96316.72;;;4.37;64.95
15405;BME280;7801;48.124;11.590;2023-01-29T11:23:32;96321.56;;;4.28;65.66
15405;BME280;7801;48.124;11.590;2023-01-29T11:25:59;96313.19;;;3.85;66.76
15405;BME280;7801;48.124;11.590;2023-01-29T11:31:35;96311.31;;;3.62;68.77
15405;BME280;7801;48.124;11.590;2023-01-29T11:34:17;96303.94;;;3.40;70.00
15405;BME280;7801;48.124;11.590;2023-01-29T11:36:56;96304.97;;;3.39;70.35
15405;BME280;7801;48.124;11.590;2023-01-29T11:39:22;96301.00;;;3.07;71.37
15405;BME280;7801;48.124;11.590;2023-01-29T11:41:58;96306.47;;;3.17;71.20
15405;BME280;7801;48.124;11.590;2023-01-29T11:44:32;96305.44;;;3.06;71.74
15405;BME280;7801;48.124;11.590;2023-01-29T11:49:44;96298.47;;;2.82;72.79
15405;BME280;7801;48.124;11.590;2023-01-29T11:52:12;96298.63;;;2.87;73.39
15405;BME280;7801;48.124;11.590;2023-01-29T11:58:11;96270.66;;;2.81;73.02
15405;BME280;7801;48.124;11.590;2023-01-29T12:00:41;96235.53;;;3.00;72.27
15405;BME280;7801;48.124;11.590;2023-01-29T12:06:01;96214.66;;;3.35;72.07
15405;BME280;7801;48.124;11.590;2023-01-29T12:08:38;96209.31;;;3.54;71.32
15405;BME280;7801;48.124;11.590;2023-01-29T12:11:33;96208.13;;;3.15;72.17
15405;BME280;7801;48.124;11.590;2023-01-29T12:14:00;96206.06;;;3.17;72.90
15405;BME280;7801;48.124;11.590;2023-01-29T12:19:24;96206.16;;;3.52;71.49
15405;BME280;7801;48.124;11.590;2023-01-29T12:21:58;96201.69;;;3.64;71.06
15405;BME280;7801;48.124;11.590;2023-01-29T12:33:02;96217.66;;;3.62;69.88
15405;BME280;7801;48.124;11.590;2023-01-29T12:35:34;96228.50;;;4.01;73.33
15405;BME280;7801;48.124;11.590;2023-01-29T12:38:16;96229.81;;;4.50;73.35
15405;BME280;7801;48.124;11.590;2023-01-29T12:40:50;96221.03;;;5.13;71.13
15405;BME280;7801;48.124;11.590;2023-01-29T12:43:31;96223.38;;;4.98;66.20
15405;BME280;7801;48.124;11.590;2023-01-29T12:46:07;96216.69;;;4.50;68.24
15405;BME280;7801;48.124;11.590;2023-01-29T12:48:37;96202.97;;;4.88;66.00
15405;BME280;7801;48.124;11.590;2023-01-29T12:51:12;96192.13;;;5.01;65.73
15405;BME280;7801;48.124;11.590;2023-01-29T12:53:59;96198.91;;;5.76;65.36
15405;BME280;7801;48.124;11.590;2023-01-29T12:56:45;96191.22;;;6.30;61.92
15405;BME280;7801;48.124;11.590;2023-01-29T12:59:36;96183.63;;;6.11;60.19
15405;BME280;7801;48.124;11.590;2023-01-29T13:02:33;96188.25;;;6.43;61.32
15405;BME280;7801;48.124;11.590;2023-01-29T13:05:14;96180.69;;;6.30;59.92
15405;BME280;7801;48.124;11.590;2023-01-29T13:07:51;96169.34;;;6.51;61.12
15405;BME280;7801;48.124;11.590;2023-01-29T13:10:24;96160.94;;;6.76;59.43
15405;BME280;7801;48.124;11.590;2023-01-29T13:12:58;96162.81;;;6.80;57.33
15405;BME280;7801;48.124;11.590;2023-01-29T13:15:32;96154.16;;;6.58;57.54
15405;BME280;7801;48.124;11.590;2023-01-29T13:21:14;96135.84;;;7.27;57.38
15405;BME280;7801;48.124;11.590;2023-01-29T13:23:47;96145.78;;;7.20;56.70
15405;BME280;7801;48.124;11.590;2023-01-29T13:26:19;96132.06;;;6.91;58.03
15405;BME280;7801;48.124;11.590;2023-01-29T13:28:46;96135.34;;;6.49;58.23
15405;BME280;7801;48.124;11.590;2023-01-29T13:31:31;96130.28;;;6.97;56.94
15405;BME280;7801;48.124;11.590;2023-01-29T13:34:06;96127.28;;;7.15;57.39
15405;BME280;7801;48.124;11.590;2023-01-29T13:36:44;96129.13;;;7.93;55.23
15405;BME280;7801;48.124;11.590;2023-01-29T13:39:32;96130.19;;;7.50;54.85
15405;BME280;7801;48.124;11.590;2023-01-29T13:42:00;96128.97;;;7.31;55.38
15405;BME280;7801;48.124;11.590;2023-01-29T13:44:34;96120.28;;;6.99;56.78
15405;BME280;7801;48.124;11.590;2023-01-29T13:47:05;96119.03;;;6.79;57.09
15405;BME280;7801;48.124;11.590;2023-01-29T13:49:44;96119.44;;;6.17;58.53
15405;BME280;7801;48.124;11.590;2023-01-29T13:55:37;96113.22;;;6.77;56.97
15405;BME280;7801;48.124;11.590;2023-01-29T13:58:06;96117.97;;;5.88;59.09
15405;BME280;7801;48.124;11.590;2023-01-29T14:05:37;96115.66;;;4.58;65.34
15405;BME280;7801;48.124;11.590;2023-01-29T14:08:35;96121.16;;;4.28;65.97
15405;BME280;7801;48.124;11.590;2023-01-29T14:13:47;96108.16;;;4.21;67.18
15405;BME280;7801;48.124;11.590;2023-01-29T14:18:59;96108.03;;;3.76;69.70
15405;BME280;7801;48.124;11.590;2023-01-29T14:21:33;96103.34;;;3.78;69.10
15405;BME280;7801;48.124;11.590;2023-01-29T14:24:21;96112.59;;;3.80;68.98
15405;BME280;7801;48.124;11.590;2023-01-29T14:26:53;96107.13;;;3.82;69.50
15405;BME280;7801;48.124;11.590;2023-01-29T14:29:27;96112.41;;;3.47;70.58
15405;BME280;7801;48.124;11.590;2023-01-29T14:34:46;96116.28;;;3.33;71.71
15405;BME280;7801;48.124;11.590;2023-01-29T14:37:19;96123.91;;;3.34;71.59
15405;BME280;7801;48.124;11.590;2023-01-29T14:43:04;96127.31;;;3.00;73.74
15405;BME280;7801;48.124;11.590;2023-01-29T14:45:37;96131.53;;;3.01;73.33
15405;BME280;7801;48.124;11.590;2023-01-29T14:48:18;96138.31;;;2.79;74.13
15405;BME280;7801;48.124;11.590;2023-01-29T14:50:48;96140.25;;;2.83;74.30
15405;BME280;7801;48.124;11.590;2023-01-29T14:56:49;96137.66;;;2.95;73.12
15405;BME280;7801;48.124;11.590;2023-01-29T14:59:35;96136.03;;;2.82;74.05
15405;BME280;7801;48.124;11.590;2023-01-29T15:02:22;96126.66;;;2.63;73.99
15405;BME280;7801;48.124;11.590;2023-01-29T15:04:55;96131.38;;;2.54;74.85
15405;BME280;7801;48.124;11.590;2023-01-29T15:10:55;96122.37;;;2.50;75.29
15405;BME280;7801;48.124;11.590;2023-01-29T15:14:02;96123.31;;;2.56;75.31
15405;BME280;7801;48.124;11.590;2023-01-29T15:16:43;96127.25;;;2.76;74.28
15405;BME280;7801;48.124;11.590;2023-01-29T15:19:42;96113.00;;;2.72;75.08
15405;BME280;7801;48.124;11.590;2023-01-29T15:22:20;96099.28;;;2.89;73.46
15405;BME280;7801;48.124;11.590;2023-01-29T15:25:15;96118.00;;;2.74;73.75
15405;BME280;7801;48.124;11.590;2023-01-29T15:27:44;96124.09;;;2.98;73.40
15405;BME280;7801;48.124;11.590;2023-01-29T15:30:19;96130.88;;;2.75;74.52
15405;BME280;7801;48.124;11.590;2023-01-29T15:32:46;96129.09;;;2.46;75.09
15405;BME280;7801;48.124;11.590;2023-01-29T15:35:34;96127.00;;;2.66;75.11
15405;BME280;7801;48.124;11.590;2023-01-29T15:38:06;96121.06;;;2.71;74.75
15405;BME280;7801;48.124;11.590;2023-01-29T15:40:33;96126.81;;;2.80;74.45
15405;BME280;7801;48.124;11.590;2023-01-29T15:42:59;96126.44;;;2.64;74.72
15405;BME280;7801;48.124;11.590;2023-01-29T15:45:31;96126.78;;;2.38;75.74
15405;BME280;7801;48.124;11.590;2023-01-29T15:48:07;96126.47;;;2.46;75.55
15405;BME280;7801;48.124;11.590;2023-01-29T15:50:40;96127.94;;;2.42;75.30
15405;BME280;7801;48.124;11.590;2023-01-29T15:53:18;96132.75;;;2.45;75.22
15405;BME280;7801;48.124;11.590;2023-01-29T15:55:47;96129.75;;;2.41;75.90
15405;BME280;7801;48.124;11.590;2023-01-29T15:58:25;96121.31;;;2.39;76.12
15405;BME280;7801;48.124;11.590;2023-01-29T16:00:55;96131.44;;;2.36;75.54
15405;BME280;7801;48.124;11.590;2023-01-29T16:03:22;96135.72;;;2.30;75.92